ANA263 RJTT-RJFF
Flight info
| Callsign | ANA263 |
|---|---|
| Flight time | 1h 30m |
| Altitude | 30000 |
| Route | GUSRO Y20 KIRIN |
| Aircraft | B772/L-SDE2E3FGHIJ5LORVWXY/LB1D1 |
Departure
| Time | 2026-05-05 07:49 |
|---|---|
| Airport | Tokyo Haneda International Airport (RJTT) |
Arrival
| Time | 2026-05-05 09:19 |
|---|---|
| Airport | Fukuoka Airport (RJFF) |
| Time | Latitude | Longitude | Altitude | Speed | Heading |
|---|---|---|---|---|---|
| 2026-05-05 07:20 | 35.55104 | 139.78992 | 32 ft | 0 kts | 240° |
| 2026-05-05 07:37 | 35.55115 | 139.79015 | 30 ft | 4 kts | 240° |
| 2026-05-05 07:38 | 35.55123 | 139.79032 | 31 ft | 2 kts | 240° |
| 2026-05-05 07:38 | 35.55132 | 139.79068 | 28 ft | 4 kts | 287° |
| 2026-05-05 07:38 | 35.55125 | 139.79085 | 28 ft | 4 kts | 317° |
| 2026-05-05 07:38 | 35.55104 | 139.79103 | 31 ft | 2 kts | 330° |
| 2026-05-05 07:39 | 35.55103 | 139.79104 | 31 ft | 1 kts | 330° |
| 2026-05-05 07:42 | 35.55135 | 139.79082 | 29 ft | 11 kts | 330° |
| 2026-05-05 07:42 | 35.55215 | 139.79081 | 32 ft | 13 kts | 42° |
| 2026-05-05 07:42 | 35.55270 | 139.79175 | 31 ft | 15 kts | 34° |
| 2026-05-05 07:43 | 35.55364 | 139.79140 | 31 ft | 15 kts | 330° |
| 2026-05-05 07:43 | 35.55461 | 139.79073 | 30 ft | 17 kts | 330° |
| 2026-05-05 07:43 | 35.55567 | 139.78999 | 30 ft | 18 kts | 330° |
| 2026-05-05 07:43 | 35.55679 | 139.78919 | 30 ft | 19 kts | 330° |
| 2026-05-05 07:44 | 35.55802 | 139.78832 | 28 ft | 21 kts | 330° |
| 2026-05-05 07:44 | 35.55932 | 139.78740 | 27 ft | 22 kts | 330° |
| 2026-05-05 07:44 | 35.56064 | 139.78645 | 27 ft | 22 kts | 330° |
| 2026-05-05 07:44 | 35.56197 | 139.78550 | 28 ft | 22 kts | 330° |
| 2026-05-05 07:45 | 35.56306 | 139.78472 | 29 ft | 14 kts | 329° |
| 2026-05-05 07:45 | 35.56329 | 139.78364 | 27 ft | 15 kts | 249° |
| 2026-05-05 07:45 | 35.56280 | 139.78255 | 28 ft | 15 kts | 240° |
| 2026-05-05 07:45 | 35.56229 | 139.78146 | 29 ft | 15 kts | 240° |
| 2026-05-05 07:46 | 35.56178 | 139.78038 | 29 ft | 15 kts | 240° |
| 2026-05-05 07:46 | 35.56127 | 139.77930 | 29 ft | 15 kts | 240° |
| 2026-05-05 07:46 | 35.56076 | 139.77822 | 29 ft | 15 kts | 239° |
| 2026-05-05 07:46 | 35.56022 | 139.77710 | 28 ft | 16 kts | 239° |
| 2026-05-05 07:47 | 35.55968 | 139.77596 | 28 ft | 16 kts | 239° |
| 2026-05-05 07:47 | 35.55911 | 139.77478 | 27 ft | 16 kts | 240° |
| 2026-05-05 07:47 | 35.55862 | 139.77373 | 26 ft | 10 kts | 240° |
| 2026-05-05 07:47 | 35.55803 | 139.77306 | 30 ft | 12 kts | 216° |
| 2026-05-05 07:48 | 35.55731 | 139.77243 | 29 ft | 13 kts | 215° |
| 2026-05-05 07:48 | 35.55666 | 139.77187 | 28 ft | 9 kts | 214° |
| 2026-05-05 07:48 | 35.55607 | 139.77187 | 29 ft | 9 kts | 157° |
| 2026-05-05 07:48 | 35.55515 | 139.77251 | 28 ft | 26 kts | 150° |
| 2026-05-05 07:49 | 35.55172 | 139.77495 | 27 ft | 101 kts | 149° |
| 2026-05-05 07:49 | 35.54317 | 139.78107 | 136 ft | 174 kts | 151° |
| 2026-05-05 07:49 | 35.53236 | 139.78930 | 1079 ft | 188 kts | 151° |
| 2026-05-05 07:49 | 35.52169 | 139.79690 | 2418 ft | 173 kts | 153° |
| 2026-05-05 07:50 | 35.51057 | 139.80454 | 2776 ft | 196 kts | 153° |
| 2026-05-05 07:50 | 35.49813 | 139.81315 | 3111 ft | 216 kts | 153° |
| 2026-05-05 07:50 | 35.48352 | 139.81833 | 3585 ft | 228 kts | 181° |
| 2026-05-05 07:50 | 35.46791 | 139.81259 | 4123 ft | 243 kts | 213° |
| 2026-05-05 07:51 | 35.45739 | 139.79653 | 4982 ft | 246 kts | 246° |
| 2026-05-05 07:51 | 35.45213 | 139.77624 | 5644 ft | 252 kts | 253° |
| 2026-05-05 07:51 | 35.44920 | 139.75528 | 6403 ft | 252 kts | 274° |
| 2026-05-05 07:51 | 35.45458 | 139.73529 | 7207 ft | 253 kts | 302° |
| 2026-05-05 07:52 | 35.46691 | 139.72015 | 8114 ft | 252 kts | 324° |
| 2026-05-05 07:52 | 35.48323 | 139.71198 | 8926 ft | 257 kts | 346° |
| 2026-05-05 07:52 | 35.50151 | 139.70841 | 9416 ft | 273 kts | 349° |
| 2026-05-05 07:52 | 35.52054 | 139.70499 | 10181 ft | 278 kts | 349° |
| 2026-05-05 07:53 | 35.54025 | 139.70135 | 10617 ft | 296 kts | 347° |
| 2026-05-05 07:53 | 35.56014 | 139.69264 | 10778 ft | 316 kts | 324° |
| 2026-05-05 07:53 | 35.57560 | 139.67269 | 11224 ft | 328 kts | 300° |
| 2026-05-05 07:53 | 35.58618 | 139.64774 | 12042 ft | 331 kts | 296° |
| 2026-05-05 07:54 | 35.59643 | 139.62235 | 13081 ft | 334 kts | 296° |
| 2026-05-05 07:54 | 35.60670 | 139.59701 | 14090 ft | 337 kts | 296° |
| 2026-05-05 07:54 | 35.61743 | 139.57073 | 14944 ft | 343 kts | 296° |
| 2026-05-05 07:54 | 35.62817 | 139.54468 | 15772 ft | 348 kts | 296° |
| 2026-05-05 07:55 | 35.63924 | 139.51793 | 16602 ft | 355 kts | 296° |
| 2026-05-05 07:55 | 35.65048 | 139.49059 | 17386 ft | 358 kts | 295° |
| 2026-05-05 07:55 | 35.65783 | 139.46106 | 18040 ft | 367 kts | 277° |
| 2026-05-05 07:55 | 35.65857 | 139.42951 | 18815 ft | 370 kts | 271° |
| 2026-05-05 07:56 | 35.65859 | 139.39785 | 19693 ft | 370 kts | 271° |
| 2026-05-05 07:56 | 35.65891 | 139.36617 | 20584 ft | 370 kts | 271° |
| 2026-05-05 07:56 | 35.65938 | 139.33463 | 21381 ft | 372 kts | 271° |
| 2026-05-05 07:56 | 35.65986 | 139.30267 | 22136 ft | 374 kts | 271° |
| 2026-05-05 07:57 | 35.66030 | 139.27044 | 22871 ft | 378 kts | 270° |
| 2026-05-05 07:57 | 35.66071 | 139.23839 | 23658 ft | 381 kts | 270° |
| 2026-05-05 07:57 | 35.66114 | 139.20551 | 24341 ft | 383 kts | 270° |
| 2026-05-05 07:57 | 35.66156 | 139.17286 | 25208 ft | 379 kts | 269° |
| 2026-05-05 07:58 | 35.66195 | 139.14080 | 25983 ft | 378 kts | 269° |
| 2026-05-05 07:58 | 35.66151 | 139.10845 | 26609 ft | 379 kts | 266° |
| 2026-05-05 07:58 | 35.66013 | 139.07588 | 27123 ft | 383 kts | 265° |
| 2026-05-05 07:58 | 35.65847 | 139.04311 | 27590 ft | 386 kts | 265° |
| 2026-05-05 07:59 | 35.65677 | 139.01020 | 28291 ft | 383 kts | 264° |
| 2026-05-05 07:59 | 35.65517 | 138.97777 | 29242 ft | 375 kts | 264° |
| 2026-05-05 07:59 | 35.65368 | 138.94600 | 30056 ft | 370 kts | 264° |
| 2026-05-05 07:59 | 35.65224 | 138.91482 | 30209 ft | 369 kts | 264° |
| 2026-05-05 08:00 | 35.64936 | 138.85163 | 30171 ft | 369 kts | 264° |
| 2026-05-05 08:00 | 35.64648 | 138.78846 | 30189 ft | 370 kts | 264° |
| 2026-05-05 08:01 | 35.64359 | 138.72520 | 30183 ft | 370 kts | 264° |
| 2026-05-05 08:01 | 35.64105 | 138.67145 | 30187 ft | 370 kts | 264° |
| 2026-05-05 08:02 | 35.63786 | 138.60819 | 30180 ft | 370 kts | 264° |
| 2026-05-05 08:02 | 35.63455 | 138.54528 | 30186 ft | 371 kts | 264° |
| 2026-05-05 08:03 | 35.63126 | 138.48289 | 30190 ft | 372 kts | 264° |
| 2026-05-05 08:03 | 35.62793 | 138.41990 | 30193 ft | 373 kts | 264° |
| 2026-05-05 08:04 | 35.62453 | 138.35624 | 30203 ft | 373 kts | 264° |
| 2026-05-05 08:04 | 35.62109 | 138.29257 | 30178 ft | 372 kts | 264° |
| 2026-05-05 08:05 | 35.61767 | 138.22937 | 30195 ft | 372 kts | 264° |
| 2026-05-05 08:05 | 35.61416 | 138.16574 | 30179 ft | 376 kts | 264° |
| 2026-05-05 08:06 | 35.61056 | 138.10162 | 30195 ft | 374 kts | 264° |
| 2026-05-05 08:06 | 35.60697 | 138.03836 | 30191 ft | 372 kts | 264° |
| 2026-05-05 08:07 | 35.60337 | 137.97473 | 30175 ft | 375 kts | 264° |
| 2026-05-05 08:07 | 35.59971 | 137.91067 | 30178 ft | 375 kts | 264° |
| 2026-05-05 08:08 | 35.59602 | 137.84676 | 30186 ft | 375 kts | 264° |
| 2026-05-05 08:08 | 35.59225 | 137.78316 | 30189 ft | 376 kts | 263° |
| 2026-05-05 08:09 | 35.58748 | 137.71908 | 30182 ft | 378 kts | 263° |
| 2026-05-05 08:09 | 35.58252 | 137.65459 | 30166 ft | 379 kts | 262° |
| 2026-05-05 08:10 | 35.57763 | 137.59010 | 30182 ft | 379 kts | 262° |
| 2026-05-05 08:10 | 35.57156 | 137.52616 | 30188 ft | 376 kts | 259° |
| 2026-05-05 08:11 | 35.55908 | 137.46389 | 30198 ft | 375 kts | 255° |
| 2026-05-05 08:11 | 35.54555 | 137.40225 | 30197 ft | 375 kts | 255° |
| 2026-05-05 08:12 | 35.53200 | 137.34020 | 30192 ft | 376 kts | 255° |
| 2026-05-05 08:12 | 35.51876 | 137.27938 | 30179 ft | 376 kts | 255° |
| 2026-05-05 08:13 | 35.50513 | 137.21728 | 30183 ft | 376 kts | 255° |
| 2026-05-05 08:13 | 35.49138 | 137.15552 | 30197 ft | 376 kts | 255° |
| 2026-05-05 08:14 | 35.47764 | 137.09381 | 30198 ft | 378 kts | 255° |
| 2026-05-05 08:14 | 35.46374 | 137.03139 | 30195 ft | 378 kts | 255° |
| 2026-05-05 08:15 | 35.44985 | 136.96920 | 30196 ft | 378 kts | 255° |
| 2026-05-05 08:15 | 35.43601 | 136.90736 | 30201 ft | 377 kts | 255° |
| 2026-05-05 08:16 | 35.42208 | 136.84531 | 30191 ft | 377 kts | 255° |
| 2026-05-05 08:16 | 35.40814 | 136.78341 | 30191 ft | 376 kts | 255° |
| 2026-05-05 08:17 | 35.39418 | 136.72156 | 30193 ft | 376 kts | 255° |
| 2026-05-05 08:17 | 35.38022 | 136.65986 | 30195 ft | 376 kts | 255° |
| 2026-05-05 08:18 | 35.36627 | 136.59837 | 30193 ft | 377 kts | 255° |
| 2026-05-05 08:18 | 35.35243 | 136.53752 | 30192 ft | 377 kts | 255° |
| 2026-05-05 08:19 | 35.33831 | 136.47552 | 30182 ft | 378 kts | 255° |
| 2026-05-05 08:19 | 35.32424 | 136.41402 | 30183 ft | 377 kts | 254° |
| 2026-05-05 08:20 | 35.31003 | 136.35185 | 30197 ft | 377 kts | 254° |
| 2026-05-05 08:20 | 35.29594 | 136.29034 | 30181 ft | 378 kts | 254° |
| 2026-05-05 08:21 | 35.28173 | 136.22836 | 30179 ft | 378 kts | 254° |
| 2026-05-05 08:21 | 35.26747 | 136.16638 | 30180 ft | 378 kts | 254° |
| 2026-05-05 08:22 | 35.25318 | 136.10442 | 30174 ft | 378 kts | 254° |
| 2026-05-05 08:22 | 35.23887 | 136.04253 | 30174 ft | 378 kts | 254° |
| 2026-05-05 08:23 | 35.22451 | 135.98059 | 30169 ft | 378 kts | 254° |
| 2026-05-05 08:23 | 35.21024 | 135.91917 | 30168 ft | 378 kts | 254° |
| 2026-05-05 08:24 | 35.19588 | 135.85738 | 30180 ft | 377 kts | 254° |
| 2026-05-05 08:24 | 35.18168 | 135.79557 | 30160 ft | 377 kts | 256° |
| 2026-05-05 08:25 | 35.17083 | 135.73288 | 30160 ft | 378 kts | 258° |
| 2026-05-05 08:25 | 35.16030 | 135.66990 | 30164 ft | 378 kts | 258° |
| 2026-05-05 08:26 | 35.14968 | 135.60684 | 30153 ft | 379 kts | 257° |
| 2026-05-05 08:26 | 35.13907 | 135.54418 | 30169 ft | 378 kts | 257° |
| 2026-05-05 08:27 | 35.12835 | 135.48131 | 30149 ft | 378 kts | 257° |
| 2026-05-05 08:27 | 35.11760 | 135.41845 | 30154 ft | 378 kts | 257° |
| 2026-05-05 08:28 | 35.10680 | 135.35539 | 30154 ft | 379 kts | 257° |
| 2026-05-05 08:28 | 35.09775 | 135.30285 | 30149 ft | 381 kts | 257° |
| 2026-05-05 08:29 | 35.08689 | 135.23953 | 30149 ft | 381 kts | 257° |
| 2026-05-05 08:30 | 35.07071 | 135.14496 | 30146 ft | 380 kts | 257° |
| 2026-05-05 08:30 | 35.06345 | 135.10274 | 30144 ft | 379 kts | 257° |
| 2026-05-05 08:31 | 35.05653 | 135.06233 | 30156 ft | 379 kts | 257° |
| 2026-05-05 08:31 | 35.04580 | 134.99994 | 30154 ft | 380 kts | 257° |
| 2026-05-05 08:32 | 35.03497 | 134.93744 | 30151 ft | 380 kts | 257° |
| 2026-05-05 08:32 | 35.02393 | 134.87447 | 30148 ft | 379 kts | 257° |
| 2026-05-05 08:33 | 35.01279 | 134.81168 | 30149 ft | 379 kts | 257° |
| 2026-05-05 08:33 | 35.00162 | 134.74877 | 30158 ft | 379 kts | 257° |
| 2026-05-05 08:34 | 34.99053 | 134.68640 | 30164 ft | 378 kts | 257° |
| 2026-05-05 08:34 | 34.97848 | 134.62402 | 30181 ft | 379 kts | 256° |
| 2026-05-05 08:35 | 34.96595 | 134.56130 | 30178 ft | 381 kts | 256° |
| 2026-05-05 08:35 | 34.95351 | 134.49884 | 30177 ft | 381 kts | 256° |
| 2026-05-05 08:36 | 34.94104 | 134.43606 | 30172 ft | 380 kts | 256° |
| 2026-05-05 08:36 | 34.92864 | 134.37358 | 30161 ft | 378 kts | 256° |
| 2026-05-05 08:37 | 34.91629 | 134.31146 | 30184 ft | 376 kts | 256° |
| 2026-05-05 08:37 | 34.90386 | 134.24949 | 30170 ft | 377 kts | 256° |
| 2026-05-05 08:38 | 34.89143 | 134.18759 | 30164 ft | 379 kts | 256° |
| 2026-05-05 08:38 | 34.87889 | 134.12516 | 30154 ft | 379 kts | 256° |
| 2026-05-05 08:39 | 34.86630 | 134.06264 | 30150 ft | 379 kts | 255° |
| 2026-05-05 08:39 | 34.85375 | 134.00060 | 30142 ft | 379 kts | 256° |
| 2026-05-05 08:40 | 34.84112 | 133.93826 | 30138 ft | 378 kts | 256° |
| 2026-05-05 08:40 | 34.82849 | 133.87612 | 30122 ft | 377 kts | 255° |
| 2026-05-05 08:41 | 34.81571 | 133.81415 | 30123 ft | 377 kts | 255° |
| 2026-05-05 08:41 | 34.80272 | 133.75275 | 30126 ft | 377 kts | 255° |
| 2026-05-05 08:42 | 34.78959 | 133.69094 | 30139 ft | 378 kts | 255° |
| 2026-05-05 08:42 | 34.77644 | 133.62899 | 30140 ft | 379 kts | 255° |
| 2026-05-05 08:43 | 34.76326 | 133.56679 | 30136 ft | 379 kts | 255° |
| 2026-05-05 08:43 | 34.75011 | 133.50512 | 30157 ft | 377 kts | 255° |
| 2026-05-05 08:44 | 34.73689 | 133.44332 | 30155 ft | 377 kts | 255° |
| 2026-05-05 08:44 | 34.72364 | 133.38146 | 30156 ft | 377 kts | 255° |
| 2026-05-05 08:45 | 34.71040 | 133.31977 | 30159 ft | 377 kts | 255° |
| 2026-05-05 08:45 | 34.69718 | 133.25838 | 30151 ft | 378 kts | 255° |
| 2026-05-05 08:46 | 34.68385 | 133.19663 | 30155 ft | 377 kts | 255° |
| 2026-05-05 08:46 | 34.67049 | 133.13488 | 30142 ft | 378 kts | 255° |
| 2026-05-05 08:47 | 34.65713 | 133.07328 | 30143 ft | 376 kts | 254° |
| 2026-05-05 08:47 | 34.64384 | 133.01222 | 30142 ft | 376 kts | 254° |
| 2026-05-05 08:48 | 34.63041 | 132.95068 | 30137 ft | 376 kts | 254° |
| 2026-05-05 08:48 | 34.61697 | 132.88926 | 30128 ft | 376 kts | 254° |
| 2026-05-05 08:49 | 34.60363 | 132.82840 | 30137 ft | 376 kts | 254° |
| 2026-05-05 08:49 | 34.59017 | 132.76721 | 29915 ft | 375 kts | 255° |
| 2026-05-05 08:49 | 34.58347 | 132.73680 | 29683 ft | 371 kts | 254° |
| 2026-05-05 08:50 | 34.57684 | 132.70671 | 29452 ft | 367 kts | 254° |
| 2026-05-05 08:50 | 34.57024 | 132.67678 | 29248 ft | 365 kts | 254° |
| 2026-05-05 08:50 | 34.56362 | 132.64685 | 29001 ft | 368 kts | 254° |
| 2026-05-05 08:50 | 34.55699 | 132.61687 | 28799 ft | 369 kts | 254° |
| 2026-05-05 08:51 | 34.55038 | 132.58706 | 28594 ft | 370 kts | 254° |
| 2026-05-05 08:51 | 34.54367 | 132.55684 | 28368 ft | 371 kts | 254° |
| 2026-05-05 08:51 | 34.53693 | 132.52653 | 28172 ft | 372 kts | 254° |
| 2026-05-05 08:51 | 34.53020 | 132.49622 | 27960 ft | 372 kts | 254° |
| 2026-05-05 08:52 | 34.52346 | 132.46595 | 27769 ft | 372 kts | 254° |
| 2026-05-05 08:52 | 34.51669 | 132.43564 | 27538 ft | 372 kts | 254° |
| 2026-05-05 08:52 | 34.50999 | 132.40547 | 27347 ft | 371 kts | 254° |
| 2026-05-05 08:52 | 34.50331 | 132.37514 | 27146 ft | 371 kts | 254° |
| 2026-05-05 08:53 | 34.49667 | 132.34499 | 26936 ft | 371 kts | 254° |
| 2026-05-05 08:53 | 34.49008 | 132.31502 | 26742 ft | 371 kts | 254° |
| 2026-05-05 08:53 | 34.48340 | 132.28474 | 26540 ft | 372 kts | 253° |
| 2026-05-05 08:53 | 34.47667 | 132.25435 | 26323 ft | 373 kts | 254° |
| 2026-05-05 08:54 | 34.47002 | 132.22416 | 26162 ft | 372 kts | 255° |
| 2026-05-05 08:54 | 34.46326 | 132.19370 | 25962 ft | 373 kts | 254° |
| 2026-05-05 08:54 | 34.45645 | 132.16322 | 25767 ft | 374 kts | 253° |
| 2026-05-05 08:54 | 34.44951 | 132.13269 | 25576 ft | 375 kts | 253° |
| 2026-05-05 08:55 | 34.44254 | 132.10219 | 25381 ft | 376 kts | 253° |
| 2026-05-05 08:55 | 34.43552 | 132.07150 | 25195 ft | 377 kts | 253° |
| 2026-05-05 08:55 | 34.42849 | 132.04081 | 24984 ft | 378 kts | 253° |
| 2026-05-05 08:55 | 34.42155 | 132.01045 | 24814 ft | 377 kts | 253° |
| 2026-05-05 08:56 | 34.41451 | 131.97983 | 24628 ft | 378 kts | 253° |
| 2026-05-05 08:56 | 34.40746 | 131.94910 | 24445 ft | 378 kts | 253° |
| 2026-05-05 08:56 | 34.40041 | 131.91837 | 24247 ft | 379 kts | 253° |
| 2026-05-05 08:56 | 34.39333 | 131.88756 | 24073 ft | 380 kts | 253° |
| 2026-05-05 08:57 | 34.38627 | 131.85681 | 23880 ft | 380 kts | 253° |
| 2026-05-05 08:57 | 34.37915 | 131.82587 | 23670 ft | 381 kts | 253° |
| 2026-05-05 08:57 | 34.37199 | 131.79484 | 23370 ft | 385 kts | 253° |
| 2026-05-05 08:57 | 34.36476 | 131.76353 | 23028 ft | 384 kts | 253° |
| 2026-05-05 08:58 | 34.35771 | 131.73303 | 22701 ft | 377 kts | 253° |
| 2026-05-05 08:58 | 34.35069 | 131.70265 | 22377 ft | 372 kts | 253° |
| 2026-05-05 08:58 | 34.34368 | 131.67241 | 22079 ft | 371 kts | 253° |
| 2026-05-05 08:58 | 34.33673 | 131.64251 | 21773 ft | 372 kts | 253° |
| 2026-05-05 08:59 | 34.32976 | 131.61244 | 21468 ft | 371 kts | 253° |
| 2026-05-05 08:59 | 34.32282 | 131.58234 | 21158 ft | 371 kts | 253° |
| 2026-05-05 08:59 | 34.31591 | 131.55236 | 20855 ft | 369 kts | 253° |
| 2026-05-05 08:59 | 34.30902 | 131.52245 | 20564 ft | 368 kts | 253° |
| 2026-05-05 09:00 | 34.30213 | 131.49260 | 20266 ft | 367 kts | 253° |
| 2026-05-05 09:00 | 34.29527 | 131.46289 | 19972 ft | 366 kts | 253° |
| 2026-05-05 09:00 | 34.28843 | 131.43328 | 19696 ft | 365 kts | 253° |
| 2026-05-05 09:00 | 34.28158 | 131.40373 | 19405 ft | 364 kts | 253° |
| 2026-05-05 09:01 | 34.27482 | 131.37460 | 19123 ft | 363 kts | 253° |
| 2026-05-05 09:01 | 34.26802 | 131.34532 | 18771 ft | 359 kts | 253° |
| 2026-05-05 09:01 | 34.26131 | 131.31644 | 18411 ft | 354 kts | 253° |
| 2026-05-05 09:01 | 34.25468 | 131.28797 | 18012 ft | 349 kts | 253° |
| 2026-05-05 09:02 | 34.24822 | 131.26024 | 17621 ft | 344 kts | 253° |
| 2026-05-05 09:02 | 34.24168 | 131.23218 | 17206 ft | 340 kts | 253° |
| 2026-05-05 09:02 | 34.23528 | 131.20482 | 16828 ft | 336 kts | 253° |
| 2026-05-05 09:02 | 34.22897 | 131.17782 | 16441 ft | 332 kts | 253° |
| 2026-05-05 09:03 | 34.22278 | 131.15137 | 16072 ft | 328 kts | 253° |
| 2026-05-05 09:03 | 34.21675 | 131.12559 | 15680 ft | 309 kts | 253° |
| 2026-05-05 09:03 | 34.21105 | 131.10125 | 15292 ft | 294 kts | 252° |
| 2026-05-05 09:03 | 34.20558 | 131.07796 | 14910 ft | 281 kts | 252° |
| 2026-05-05 09:04 | 34.20036 | 131.05571 | 14539 ft | 271 kts | 252° |
| 2026-05-05 09:04 | 34.19525 | 131.03405 | 14169 ft | 266 kts | 252° |
| 2026-05-05 09:04 | 34.18988 | 131.01267 | 13796 ft | 268 kts | 248° |
| 2026-05-05 09:04 | 34.18281 | 130.99154 | 13452 ft | 274 kts | 245° |
| 2026-05-05 09:05 | 34.17513 | 130.97026 | 13058 ft | 276 kts | 244° |
| 2026-05-05 09:05 | 34.16744 | 130.94910 | 12687 ft | 276 kts | 245° |
| 2026-05-05 09:05 | 34.15976 | 130.92781 | 12311 ft | 276 kts | 245° |
| 2026-05-05 09:05 | 34.15636 | 130.91834 | 12150 ft | 276 kts | 245° |
| 2026-05-05 09:06 | 34.14883 | 130.89727 | 12029 ft | 268 kts | 245° |
| 2026-05-05 09:06 | 34.14156 | 130.87688 | 12015 ft | 262 kts | 245° |
| 2026-05-05 09:06 | 34.13443 | 130.85689 | 12007 ft | 256 kts | 245° |
| 2026-05-05 09:06 | 34.12688 | 130.83580 | 12044 ft | 292 kts | 245° |
| 2026-05-05 09:07 | 34.11767 | 130.81315 | 12030 ft | 304 kts | 238° |
| 2026-05-05 09:07 | 34.10611 | 130.79212 | 11931 ft | 298 kts | 233° |
| 2026-05-05 09:07 | 34.09415 | 130.77220 | 11755 ft | 296 kts | 233° |
| 2026-05-05 09:07 | 34.08217 | 130.75237 | 11401 ft | 293 kts | 233° |
| 2026-05-05 09:08 | 34.07018 | 130.73231 | 10950 ft | 294 kts | 233° |
| 2026-05-05 09:08 | 34.06226 | 130.71894 | 10678 ft | 295 kts | 233° |
| 2026-05-05 09:08 | 34.05078 | 130.69942 | 10313 ft | 293 kts | 234° |
| 2026-05-05 09:08 | 34.03943 | 130.68003 | 9964 ft | 291 kts | 234° |
| 2026-05-05 09:09 | 34.02784 | 130.66017 | 9722 ft | 285 kts | 234° |
| 2026-05-05 09:09 | 34.01663 | 130.64094 | 9549 ft | 276 kts | 234° |
| 2026-05-05 09:09 | 34.00575 | 130.62228 | 9392 ft | 268 kts | 234° |
| 2026-05-05 09:09 | 33.99575 | 130.60414 | 9078 ft | 261 kts | 243° |
| 2026-05-05 09:10 | 33.99195 | 130.58912 | 9020 ft | 258 kts | 259° |
| 2026-05-05 09:10 | 33.99156 | 130.56734 | 9003 ft | 266 kts | 271° |
| 2026-05-05 09:10 | 33.99306 | 130.54480 | 9001 ft | 271 kts | 272° |
| 2026-05-05 09:11 | 33.99468 | 130.52215 | 8997 ft | 271 kts | 272° |
| 2026-05-05 09:11 | 33.99449 | 130.49978 | 8991 ft | 265 kts | 253° |
| 2026-05-05 09:11 | 33.98623 | 130.48045 | 8951 ft | 265 kts | 229° |
| 2026-05-05 09:11 | 33.97242 | 130.46560 | 8480 ft | 264 kts | 217° |
| 2026-05-05 09:12 | 33.95828 | 130.45255 | 8091 ft | 248 kts | 216° |
| 2026-05-05 09:12 | 33.94436 | 130.43980 | 7777 ft | 255 kts | 216° |
| 2026-05-05 09:12 | 33.93008 | 130.42669 | 7457 ft | 259 kts | 216° |
| 2026-05-05 09:12 | 33.91581 | 130.41353 | 7119 ft | 259 kts | 216° |
| 2026-05-05 09:13 | 33.90159 | 130.40037 | 6787 ft | 258 kts | 216° |
| 2026-05-05 09:13 | 33.88750 | 130.38730 | 6455 ft | 258 kts | 215° |
| 2026-05-05 09:13 | 33.87326 | 130.37407 | 6097 ft | 258 kts | 215° |
| 2026-05-05 09:13 | 33.85911 | 130.36091 | 5754 ft | 257 kts | 216° |
| 2026-05-05 09:14 | 33.84497 | 130.34776 | 5417 ft | 256 kts | 216° |
| 2026-05-05 09:14 | 33.83087 | 130.33465 | 5093 ft | 255 kts | 216° |
| 2026-05-05 09:14 | 33.81699 | 130.32195 | 4755 ft | 249 kts | 211° |
| 2026-05-05 09:14 | 33.80104 | 130.31534 | 4440 ft | 243 kts | 181° |
| 2026-05-05 09:15 | 33.78461 | 130.31921 | 4172 ft | 241 kts | 161° |
| 2026-05-05 09:15 | 33.76904 | 130.32666 | 3858 ft | 240 kts | 159° |
| 2026-05-05 09:15 | 33.75449 | 130.33507 | 3540 ft | 223 kts | 154° |
| 2026-05-05 09:15 | 33.74146 | 130.34385 | 3260 ft | 209 kts | 152° |
| 2026-05-05 09:16 | 33.72890 | 130.35252 | 2993 ft | 208 kts | 152° |
| 2026-05-05 09:16 | 33.71633 | 130.36119 | 2713 ft | 208 kts | 152° |
| 2026-05-05 09:16 | 33.70401 | 130.36967 | 2420 ft | 199 kts | 152° |
| 2026-05-05 09:16 | 33.69231 | 130.37773 | 2164 ft | 191 kts | 152° |
| 2026-05-05 09:17 | 33.68099 | 130.38550 | 1959 ft | 188 kts | 152° |
| 2026-05-05 09:17 | 33.66964 | 130.39329 | 1704 ft | 187 kts | 151° |
| 2026-05-05 09:17 | 33.65855 | 130.40091 | 1435 ft | 178 kts | 150° |
| 2026-05-05 09:17 | 33.65144 | 130.40579 | 1263 ft | 170 kts | 151° |
| 2026-05-05 09:18 | 33.63858 | 130.41462 | 1009 ft | 152 kts | 150° |
| 2026-05-05 09:18 | 33.63248 | 130.41883 | 855 ft | 153 kts | 149° |
| 2026-05-05 09:18 | 33.62360 | 130.42489 | 683 ft | 148 kts | 150° |
| 2026-05-05 09:18 | 33.61457 | 130.43112 | 463 ft | 150 kts | 152° |
| 2026-05-05 09:19 | 33.60565 | 130.43726 | 256 ft | 143 kts | 152° |
| 2026-05-05 09:19 | 33.59779 | 130.44262 | 83 ft | 117 kts | 152° |
| 2026-05-05 09:19 | 33.59177 | 130.44666 | 30 ft | 88 kts | 150° |
| 2026-05-05 09:19 | 33.58777 | 130.44940 | 38 ft | 47 kts | 150° |
| 2026-05-05 09:20 | 33.58511 | 130.45122 | 40 ft | 35 kts | 150° |
| 2026-05-05 09:20 | 33.58377 | 130.45258 | 41 ft | 24 kts | 124° |
| 2026-05-05 09:20 | 33.58319 | 130.45363 | 39 ft | 15 kts | 123° |
| 2026-05-05 09:20 | 33.58330 | 130.45464 | 38 ft | 6 kts | 22° |
| 2026-05-05 09:21 | 33.58370 | 130.45448 | 38 ft | 6 kts | 330° |
| 2026-05-05 09:21 | 33.58407 | 130.45423 | 39 ft | 6 kts | 330° |
| 2026-05-05 09:21 | 33.58445 | 130.45398 | 39 ft | 6 kts | 331° |
| 2026-05-05 09:21 | 33.58483 | 130.45373 | 39 ft | 6 kts | 332° |
| 2026-05-05 09:22 | 33.58546 | 130.45330 | 38 ft | 15 kts | 329° |
| 2026-05-05 09:22 | 33.58640 | 130.45264 | 39 ft | 16 kts | 330° |
| 2026-05-05 09:22 | 33.58733 | 130.45200 | 38 ft | 16 kts | 330° |
| 2026-05-05 09:22 | 33.58828 | 130.45136 | 36 ft | 16 kts | 330° |
| 2026-05-05 09:23 | 33.58922 | 130.45071 | 35 ft | 16 kts | 330° |
| 2026-05-05 09:23 | 33.59016 | 130.45006 | 33 ft | 16 kts | 330° |
| 2026-05-05 09:23 | 33.59110 | 130.44942 | 29 ft | 16 kts | 330° |
| 2026-05-05 09:23 | 33.59205 | 130.44879 | 29 ft | 16 kts | 330° |
| 2026-05-05 09:24 | 33.59270 | 130.44853 | 29 ft | 10 kts | 355° |
| 2026-05-05 09:24 | 33.59338 | 130.44852 | 29 ft | 10 kts | 0° |
| 2026-05-05 09:24 | 33.59404 | 130.44838 | 29 ft | 10 kts | 333° |
| 2026-05-05 09:24 | 33.59464 | 130.44799 | 29 ft | 10 kts | 331° |
| 2026-05-05 09:25 | 33.59524 | 130.44760 | 30 ft | 10 kts | 330° |
| 2026-05-05 09:25 | 33.59583 | 130.44720 | 30 ft | 10 kts | 330° |
| 2026-05-05 09:25 | 33.59643 | 130.44679 | 30 ft | 10 kts | 331° |
| 2026-05-05 09:25 | 33.59702 | 130.44641 | 29 ft | 7 kts | 331° |
| 2026-05-05 09:26 | 33.59744 | 130.44629 | 29 ft | 7 kts | 12° |
| 2026-05-05 09:26 | 33.59768 | 130.44662 | 29 ft | 1 kts | 56° |
| 2026-05-05 09:26 | 33.59775 | 130.44670 | 29 ft | 2 kts | 45° |
| 2026-05-05 09:26 | 33.59782 | 130.44680 | 29 ft | 2 kts | 55° |
| 2026-05-05 09:27 | 33.59788 | 130.44691 | 29 ft | 1 kts | 58° |
| 2026-05-05 09:27 | 33.59788 | 130.44692 | 29 ft | 0 kts | 58° |